Home > Products > Valid Products > TAF

000
FTUS44 KLZK 300500 RRA
TAFHOT
TAF
KHOT 300542Z 3006/3106 VRB03KT P6SM FEW040 SCT120
     FM301500 18005KT P6SM VCTS SCT035CB BKN250=



000
FTUS44 KLZK 300500 RRA
TAFPBF
TAF
KPBF 300542Z 3006/3106 17005KT P6SM FEW040 SCT120
     FM301500 17007KT P6SM VCTS SCT035CB BKN250
      TEMPO 3019/3023 -TSRA SCT025 BKN035CB=



000
FTUS44 KLZK 300500 RRA
TAFHRO
TAF
KHRO 300542Z 3006/3106 15005KT P6SM SCT120
     FM301400 19005KT P6SM VCSH SCT030 BKN120
     FM301800 19006KT P6SM SCT120=



000
FTUS44 KLZK 300500 RRA
TAFLIT
TAF
KLIT 300542Z 3006/3106 VRB03KT P6SM FEW040 SCT120
     FM301500 18007KT P6SM VCTS SCT035CB BKN250=



000
FTUS44 KLZK 300300 AAA
TAFLIT
TAF AMD
KLIT 300356Z 3004/3024 VRB04KT P6SM VCTS SCT040CB BKN100
     FM300600 17005KT P6SM SCT100 BKN250
     FM301500 18007KT P6SM VCTS SCT035CB BKN250=



000
FTUS44 KLZK 292300
TAFPBF
TAF
KPBF 292339Z 3000/3024 17006KT P6SM VCTS SCT040CB BKN100
     FM300400 17005KT P6SM SCT100 BKN250
     FM301500 17007KT P6SM VCTS SCT035CB BKN250=



000
FTUS44 KLZK 292300
TAFLIT
TAF
KLIT 292339Z 3000/3024 17006KT P6SM VCTS SCT040CB BKN100
     FM300400 17005KT P6SM SCT100 BKN250
     FM301500 18007KT P6SM VCTS SCT035CB BKN250=



000
FTUS44 KLZK 292300
TAFHOT
TAF
KHOT 292339Z 3000/3024 21004KT P6SM VCTS SCT040CB BKN100
     FM300400 16003KT P6SM SCT100 BKN250
     FM301500 18005KT P6SM VCTS SCT035CB BKN250
      AMD NOT SKED=



000
FTUS44 KLZK 292300
TAFHRO
TAF
KHRO 292339Z 3000/3024 17005KT P6SM VCSH SCT040 BKN100
     FM300400 15005KT P6SM SCT100 BKN250
     FM301500 19005KT P6SM VCTS SCT030CB BKN250=



000
FTUS44 KLZK 291900 AAA
TAFHRO
TAF AMD
KHRO 291956Z 2920/3018 17009KT P6SM VCTS SCT040CB BKN100
      TEMPO 2920/2922 VRB15G25KT 5SM -TSRA BR BKN035CB
     FM292200 16010KT P6SM VCTS SCT050CB BKN100
      TEMPO 2922/3002 5SM -TSRA BKN035CB
     FM300400 16005KT P6SM FEW050 SCT100
     FM301200 VRB04KT P6SM SCT100 BKN250=



000
FTUS44 KLZK 291700
TAFHOT
TAF
KHOT 291728Z 2918/3018 23010KT P6SM VCTS SCT030CB BKN100
      TEMPO 2919/2923 5SM -TSRA BR BKN030CB
     FM292300 17004KT P6SM VCTS SCT050CB BKN100
     FM300600 VRB02KT P6SM FEW100
     FM301200 16005KT P6SM SCT100 BKN250=



000
FTUS44 KLZK 291700
TAFLIT
TAF
KLIT 291728Z 2918/3018 19007KT P6SM VCTS SCT035CB BKN100
      TEMPO 2919/2923 VRB15G25KT 4SM TSRA BR BKN025CB OVC060
     FM292300 18005KT P6SM VCTS SCT050CB BKN100
     FM300600 19005KT P6SM FEW050 FEW100
     FM301200 20004KT P6SM SCT100 BKN250=



000
FTUS44 KLZK 291700
TAFPBF
TAF
KPBF 291728Z 2918/3018 18005KT P6SM VCTS SCT040CB BKN100
      TEMPO 2919/2923 5SM -TSRA BR BKN030CB
     FM292300 17008KT P6SM VCTS SCT050CB BKN100
     FM300600 16004KT P6SM FEW050 FEW100
     FM301200 VRB04KT P6SM SCT100 BKN250=



000
FTUS44 KLZK 291700
TAFHRO
TAF
KHRO 291728Z 2918/3018 17009KT P6SM VCTS SCT040CB BKN100
      TEMPO 2918/2922 5SM -TSRA BR BKN035CB
     FM292200 16010KT P6SM VCTS SCT050CB BKN100
      TEMPO 2922/3002 5SM -TSRA BKN035CB
     FM300400 16005KT P6SM FEW050 SCT100
     FM301200 VRB04KT P6SM SCT100 BKN250=



000
FTUS44 KLZK 291600 AAA
TAFHOT
TAF AMD
KHOT 291625Z 2916/3012 25007KT P6SM SCT030 BKN100
      TEMPO 2916/2919 BKN030
     FM292300 17004KT P6SM VCTS SCT050CB BKN100
     FM300600 VRB02KT P6SM FEW100
      AMD NOT SKED=



000
FTUS44 KLZK 291300 AAA
TAFPBF
TAF AMD
KPBF 291302Z 2913/3012 VRB03KT P6SM VCSH BKN100
      TEMPO 2913/2916 5SM -SHRA BKN050 OVC100
     FM291600 18005KT P6SM FEW050 FEW100
     FM292300 17008KT P6SM VCTS SCT050CB BKN100
     FM300600 16004KT P6SM FEW050 FEW100=



000
FTUS44 KLZK 291100 CCA
TAFHOT
TAF COR
KHOT 291143Z 2912/3012 00000KT P6SM SCT050
     FM291600 19007KT P6SM FEW050 FEW100
     FM292300 17004KT P6SM VCTS SCT050CB BKN100
     FM300600 VRB02KT P6SM FEW100
      AMD NOT SKED=



000
FTUS44 KLZK 291100
TAFPBF
TAF
KPBF 291138Z 2912/3012 00000KT P6SM FEW100
     FM291600 18005KT P6SM FEW050 FEW100
     FM292300 17008KT P6SM VCTS SCT050CB BKN100
     FM300600 16004KT P6SM FEW050 FEW100=



000
FTUS44 KLZK 291100
TAFLIT
TAF
KLIT 291138Z 2912/3012 00000KT P6SM SCT100
     FM291600 19007KT P6SM FEW050 FEW100
     FM292300 18005KT P6SM VCTS SCT050CB BKN100
     FM300600 19005KT P6SM FEW050 FEW100=



000
FTUS44 KLZK 291100
TAFHRO
TAF
KHRO 291138Z 2912/3012 13004KT P6SM SKC
     FM291400 17006KT P6SM SCT040 BKN110
     FM291900 18009KT P6SM VCTS BKN040CB BKN100
      TEMPO 2922/3002 5SM -TSRA BR BKN035CB
     FM300400 16005KT P6SM FEW050 SCT100=



000
FTUS44 KLZK 291100
TAFHOT
TAF
KHOT 291138Z 2912/3012 00000KT P6SM SCT050
     FM291600 19007KT P6SM FEW050 FEW100
     FM292300 17004KT P6SM VCTS SCT050CB BKN100
     FM300600 VRB02KT P6SM FEW100=



000
FTUS44 KLZK 290900 AAA
TAFPBF
TAF AMD
KPBF 290903Z 2909/3006 00000KT P6SM FEW120
     FM291400 18008KT P6SM SCT050 SCT100
     FM300100 16004KT P6SM SCT050 BKN100=



000
FTUS44 KLZK 290900 AAA
TAFLIT
TAF AMD
KLIT 290903Z 2909/3006 00000KT P6SM FEW100
     FM291400 19007KT P6SM SCT050 SCT100
     FM300100 18005KT P6SM VCSH SCT050 BKN100=



000
FTUS44 KLZK 290900 CCA
TAFHOT
TAF COR
KHOT 290901Z 2909/3006 VRB02KT P6SM SCT050
     FM291200 18006KT P6SM SCT050
     FM300000 17004KT P6SM VCTS SCT050CB BKN100
      AMD NOT SKED=



000
FTUS44 KLZK 290900 AAA
TAFHOT
TAF AMD
KHOT 290901Z 2909/3006 VRB02KT P6SM VCSH SCT050
     FM291200 18006KT P6SM SCT050
     FM300000 17004KT P6SM VCTS SCT050CB BKN100=



000
FTUS44 KLZK 290500
TAFPBF
TAF
KPBF 290538Z 2906/3006 VRB02KT P6SM FEW060 FEW100
     FM290900 16002KT P6SM VCTS SCT050CB BKN100
     FM291300 18008KT P6SM SCT050 SCT100
     FM300100 16004KT P6SM SCT050 BKN100=



000
FTUS44 KLZK 290500
TAFLIT
TAF
KLIT 290538Z 2906/3006 15004KT P6SM FEW060 FEW100
     FM290900 16004KT P6SM VCTS SCT050CB BKN100
     FM291300 19007KT P6SM SCT050 SCT100
     FM300100 18005KT P6SM VCSH SCT050 BKN100=



000
FTUS44 KLZK 290500
TAFHRO
TAF
KHRO 290538Z 2906/3006 14004KT P6SM SKC
     FM291400 17006KT P6SM VCSH SCT040 BKN110
     FM291900 18009KT 6SM -TSRA SCT030 BKN040CB
      TEMPO 2919/2923 VRB15G25KT 4SM +TSRA BR BKN025CB
     FM300000 16005KT P6SM VCTS SCT030 BKN040CB=



000
FTUS44 KLZK 290500
TAFHOT
TAF
KHOT 290538Z 2906/3006 VRB02KT P6SM FEW060 FEW100
     FM290800 VRB03KT P6SM VCTS SCT050CB BKN100
     FM291200 18006KT P6SM SCT050 SCT100
     FM300000 17004KT P6SM VCTS SCT050CB BKN100=



000
FTUS44 KLZK 282300
TAFHOT
TAF
KHOT 282326Z 2900/2924 15003KT P6SM SCT250
     FM291500 18006KT P6SM SCT050 SCT110
     FM291800 22009KT P6SM VCSH BKN050 PROB30 2919/2923 5SM -TSRA
      BKN025CB=



000
FTUS44 KLZK 282300
TAFHRO
TAF
KHRO 282326Z 2900/2924 18004KT P6SM FEW110 SCT250
     FM291400 20006KT P6SM VCSH SCT040 BKN110
     FM291900 23009KT 6SM -TSRA SCT025CB BKN040
      TEMPO 2919/2923 VRB15G25KT 4SM +TSRA BR BKN025CB=



000
FTUS44 KLZK 282300
TAFPBF
TAF
KPBF 282326Z 2900/2924 12003KT P6SM FEW250
      TEMPO 2910/2912 2SM BR
     FM291600 18005KT P6SM SCT050
     FM292000 22008KT P6SM BKN050 PROB30 2920/2924 5SM -TSRA
      BKN025CB=



000
FTUS44 KLZK 282300
TAFLIT
TAF
KLIT 282326Z 2900/2924 15004KT P6SM SCT250
     FM291500 18007KT P6SM SCT050 SCT110
     FM291800 22010KT P6SM VCSH BKN050 PROB30 2919/2923 5SM -TSRA
      BKN025CB=



000
FTUS44 KLZK 281700
TAFPBF
TAF
KPBF 281728Z 2818/2918 12006KT P6SM SCT050
     FM282100 13006KT P6SM FEW250
     FM290300 16002KT P6SM SKC
     FM291200 21004KT P6SM SKC=



000
FTUS44 KLZK 281700
TAFLIT
TAF
KLIT 281728Z 2818/2918 18005KT P6SM SCT050
     FM290300 VRB02KT P6SM FEW250
     FM291200 19004KT P6SM BKN110 PROB30 2912/2918 5SM -TSRA
      BKN040CB=



000
FTUS44 KLZK 281700
TAFHRO
TAF
KHRO 281728Z 2818/2918 16007KT P6SM FEW050
     FM290300 VRB02KT P6SM FEW250
     FM291200 19004KT P6SM BKN110 PROB30 2912/2918 5SM -TSRA
      BKN040CB=



000
FTUS44 KLZK 281700
TAFHOT
TAF
KHOT 281728Z 2818/2918 14005KT P6SM SCT050
     FM290300 VRB02KT P6SM FEW250
     FM291200 19004KT P6SM BKN110 PROB30 2912/2918 5SM -TSRA
      BKN040CB=



000
FTUS44 KLZK 281300 AAA
TAFPBF
TAF AMD
KPBF 281336Z 2814/2912 00000KT P6SM SKC
     FM281700 15007KT P6SM SCT050
     FM290100 13002KT P6SM SKC=



000
FTUS44 KLZK 281100 AAA
TAFPBF
TAF AMD
KPBF 281159Z 2812/2912 00000KT P6SM SKC
      TEMPO 2812/2814 1/2SM FG
     FM281700 15007KT P6SM SCT050
     FM290100 13002KT P6SM SKC=



000
FTUS44 KLZK 281100
TAFPBF
TAF
KPBF 281133Z 2812/2912 00000KT P6SM SKC
     FM281700 15007KT P6SM SCT050
     FM290100 13002KT P6SM SKC=



000
FTUS44 KLZK 281100
TAFLIT
TAF
KLIT 281133Z 2812/2912 16003KT P6SM SKC
     FM281700 17007KT P6SM SCT050
     FM290200 VRB02KT P6SM SKC=



000
FTUS44 KLZK 281100
TAFHRO
TAF
KHRO 281133Z 2812/2912 14004KT P6SM SKC
      TEMPO 2812/2814 4SM BR
     FM281700 18009KT P6SM SCT050
     FM290200 16003KT P6SM SKC=



000
FTUS44 KLZK 281100
TAFHOT
TAF
KHOT 281133Z 2812/2912 VRB02KT P6SM SKC
     FM281700 18007KT P6SM SCT040
     FM290100 00000KT P6SM SKC=



000
FTUS44 KLZK 280900 AAA
TAFHRO
TAF AMD
KHRO 280934Z 2810/2906 14003KT P6SM SKC
     FM281700 18009KT P6SM SCT050
     FM290000 16003KT P6SM SKC=



000
FTUS44 KLZK 280500
TAFPBF
TAF
KPBF 280524Z 2806/2906 00000KT P6SM SKC
     FM281700 15007KT P6SM SCT050
     FM290000 13002KT P6SM SKC=



000
FTUS44 KLZK 280500
TAFHRO
TAF
KHRO 280524Z 2806/2906 11004KT P6SM SKC
      TEMPO 2809/2813 3SM BR
     FM281700 18009KT P6SM SCT050
     FM290000 16003KT P6SM SKC=



000
FTUS44 KLZK 280500
TAFLIT
TAF
KLIT 280524Z 2806/2906 00000KT P6SM SKC
     FM281700 17007KT P6SM SCT050
     FM290000 VRB02KT P6SM SKC=



000
FTUS44 KLZK 280500
TAFHOT
TAF
KHOT 280524Z 2806/2906 00000KT P6SM SKC
      TEMPO 2809/2813 5SM BR
     FM281700 18007KT P6SM SCT040
     FM290000 00000KT P6SM SKC=



000
FTUS44 KLZK 272300
TAFLIT
TAF
KLIT 272334Z 2800/2824 14004KT P6SM SCT250
     FM281700 17007KT P6SM SCT050=



000
FTUS44 KLZK 272300
TAFPBF
TAF
KPBF 272334Z 2800/2824 09003KT P6SM SCT250
     FM281700 15007KT P6SM SCT050=



000
FTUS44 KLZK 272300
TAFHOT
TAF
KHOT 272334Z 2800/2824 13004KT P6SM SCT250
      TEMPO 2809/2813 5SM BR
     FM281700 18007KT P6SM SCT040=



000
FTUS44 KLZK 272300
TAFHRO
TAF
KHRO 272334Z 2800/2824 15004KT P6SM SCT250
      TEMPO 2809/2813 3SM BR
     FM281700 18009KT P6SM SCT050=



000
FTUS44 KLZK 271700
TAFHOT
TAF
KHOT 271740Z 2718/2818 11007KT P6SM SCT050
      TEMPO 2718/2722 BKN050
     FM280000 12004KT P6SM SCT250
     FM281500 18005KT P6SM SCT040=



000
FTUS44 KLZK 271700
TAFPBF
TAF
KPBF 271740Z 2718/2818 07007KT P6SM SCT040
      TEMPO 2718/2722 BKN040
     FM280000 00000KT P6SM SCT250
     FM281500 17005KT P6SM SCT040=



000
FTUS44 KLZK 271700
TAFLIT
TAF
KLIT 271740Z 2718/2818 10008KT P6SM SCT040 BKN250
      TEMPO 2718/2722 BKN040
     FM280000 14003KT P6SM SCT250
     FM281500 17005KT P6SM SCT040=



000
FTUS44 KLZK 271700
TAFHRO
TAF
KHRO 271740Z 2718/2818 09008KT P6SM SCT050
      TEMPO 2718/2722 BKN050
     FM280000 12004KT P6SM SCT250
     FM281500 15007KT P6SM SCT040=



000
FTUS44 KLZK 271400 AAB
TAFHRO
TAF AMD
KHRO 271420Z 2714/2812 13003KT P6SM SKC
     FM271700 09008KT P6SM SCT050
     FM280000 12004KT P6SM SKC=



000
FTUS44 KLZK 271100 AAA
TAFHRO
TAF AMD
KHRO 271133Z 2712/2812 13004KT 3SM BR SKC
      TEMPO 2712/2713 1 1/2SM BR
     FM271700 09008KT P6SM SCT050
     FM280000 12004KT P6SM SKC=



000
FTUS44 KLZK 271100
TAFHOT
TAF
KHOT 271120Z 2712/2812 00000KT P6SM SCT250
     FM271700 13008KT P6SM SCT050
     FM280000 00000KT P6SM FEW250=



000
FTUS44 KLZK 271100
TAFLIT
TAF
KLIT 271120Z 2712/2812 00000KT P6SM SCT250
     FM271700 10010KT P6SM SCT040
     FM280000 12003KT P6SM FEW250=



000
FTUS44 KLZK 271100
TAFHRO
TAF
KHRO 271120Z 2712/2812 13004KT 4SM BR SKC
      TEMPO 2712/2713 1 1/2SM BR
     FM271700 09008KT P6SM SCT050
     FM280000 12004KT P6SM SKC=



000
FTUS44 KLZK 271100
TAFPBF
TAF
KPBF 271120Z 2712/2812 VRB03KT P6SM FEW250
     FM271700 12008KT P6SM SCT040
     FM280000 00000KT P6SM SKC=



000
FTUS44 KLZK 271000 AAA
TAFHRO
TAF AMD
KHRO 271014Z 2710/2806 13004KT 4SM BR SKC
      TEMPO 2710/2712 1 1/2SM BR
     FM271700 09008KT P6SM SCT050
     FM280000 12004KT P6SM SKC=



    US Dept of Commerce
    National Oceanic and Atmospheric Administration
    National Weather Service
    1325 East West Highway
    Silver Spring, MD 20910
    Page Author: NWS Internet Services Team
Disclaimer
Information Quality
Credits
Glossary
Privacy Policy
Freedom of Information Act (FOIA)
About Us
Career Opportunities